Time;durP1;ratioP1;P1;durP2;ratioP2;P2;SDS_P1;SDS_P2;PMS_P1;PMS_P2;Temp;Humidity;BMP_temperature;BMP_pressure;BME280_temperature;BME280_humidity;BME280_pressure;Samples;Min_cycle;Max_cycle;Signal;HPM_P1;HPM_P2
2023/04/08 00:02:06;;;;;;;16.90;11.90;;;6.70;99.90;;;;;;4905854;29;20241;-60
2023/04/08 00:04:34;;;;;;;15.77;11.90;;;6.70;99.90;;;;;;4914601;29;20252;-60
2023/04/08 00:07:02;;;;;;;18.07;11.73;;;6.70;99.90;;;;;;4929546;29;20636;-60
2023/04/08 00:09:32;;;;;;;14.70;10.87;;;6.70;99.90;;;;;;4937424;29;20292;-60
2023/04/08 00:12:01;;;;;;;17.73;11.70;;;6.70;99.90;;;;;;4910577;29;20232;-59
2023/04/08 00:14:29;;;;;;;18.53;11.57;;;6.70;99.90;;;;;;4918084;29;20750;-59
2023/04/08 00:16:57;;;;;;;18.57;12.17;;;6.70;99.90;;;;;;4918095;29;20260;-60
2023/04/08 00:19:25;;;;;;;16.70;12.17;;;6.70;99.90;;;;;;4918077;29;20311;-60
2023/04/08 00:21:54;;;;;;;16.90;10.90;;;6.70;99.90;;;;;;4918022;29;20221;-60
2023/04/08 00:24:22;;;;;;;14.40;10.60;;;6.70;99.90;;;;;;4902662;29;20586;-60
2023/04/08 00:26:52;;;;;;;15.47;10.33;;;6.70;99.90;;;;;;4916566;29;20589;-60
2023/04/08 00:29:20;;;;;;;16.80;11.83;;;6.70;99.90;;;;;;4912302;29;20236;-60
2023/04/08 00:31:48;;;;;;;15.60;10.70;;;6.80;99.90;;;;;;4906205;29;20269;-60
2023/04/08 00:34:16;;;;;;;13.13;9.50;;;6.70;99.90;;;;;;4899153;29;20236;-60
2023/04/08 00:36:45;;;;;;;16.43;10.37;;;6.80;99.90;;;;;;4923807;29;20315;-60
2023/04/08 00:39:14;;;;;;;14.40;10.60;;;6.80;99.90;;;;;;4936828;29;20231;-60
2023/04/08 00:41:43;;;;;;;15.33;10.27;;;6.80;99.90;;;;;;4912341;29;20230;-59
2023/04/08 00:44:12;;;;;;;17.73;10.77;;;6.80;99.90;;;;;;4917492;29;20312;-59
2023/04/08 00:46:40;;;;;;;15.13;9.87;;;6.80;99.90;;;;;;4917506;29;20225;-60
2023/04/08 00:49:08;;;;;;;16.63;10.83;;;6.70;99.90;;;;;;4916327;29;20228;-60
2023/04/08 00:51:36;;;;;;;16.67;10.00;;;6.70;99.90;;;;;;4917704;29;20259;-60
2023/04/08 00:54:05;;;;;;;16.30;10.17;;;6.60;99.90;;;;;;4931792;29;20233;-60
2023/04/08 00:56:34;;;;;;;15.47;10.50;;;6.70;99.90;;;;;;4917567;29;20335;-59
2023/04/08 00:59:03;;;;;;;13.80;9.50;;;6.70;99.90;;;;;;4916181;29;20244;-60
2023/04/08 01:01:43;;;;;;;15.43;10.47;;;6.80;99.90;;;;;;4912725;29;20791;-59
2023/04/08 01:04:21;;;;;;;17.33;10.33;;;6.70;99.90;;;;;;4921405;29;20232;-60
2023/04/08 01:06:54;;;;;;;15.50;10.43;;;6.70;99.90;;;;;;4911467;29;20221;-60
2023/04/08 01:09:27;;;;;;;15.03;9.83;;;6.70;99.90;;;;;;4897152;29;20236;-60
2023/04/08 01:11:57;;;;;;;15.70;10.03;;;6.70;99.90;;;;;;4906992;29;20239;-60
2023/04/08 01:14:28;;;;;;;14.23;10.20;;;6.80;99.90;;;;;;4916024;29;20239;-60
2023/04/08 01:19:59;;;;;;;17.87;11.13;;;6.80;99.90;;;;;;4917098;29;20229;-60
2023/04/08 01:22:41;;;;;;;14.63;10.57;;;6.80;99.90;;;;;;4931321;29;20224;-60
2023/04/08 01:25:12;;;;;;;18.97;10.53;;;6.70;99.90;;;;;;4898371;29;20244;-60
2023/04/08 01:27:43;;;;;;;15.87;10.43;;;6.80;99.90;;;;;;4897860;29;20226;-60
2023/04/08 01:30:12;;;;;;;16.47;11.53;;;6.80;99.90;;;;;;4897642;29;20696;-57
2023/04/08 01:32:42;;;;;;;18.00;10.97;;;6.70;99.90;;;;;;4898919;29;20233;-60
2023/04/08 01:35:11;;;;;;;16.63;10.87;;;6.70;99.90;;;;;;4908176;29;20261;-60
2023/04/08 01:37:40;;;;;;;17.10;11.40;;;6.70;99.90;;;;;;4921405;29;20231;-60
2023/04/08 01:40:10;;;;;;;17.13;10.87;;;6.70;99.90;;;;;;4916782;29;20730;-60
2023/04/08 01:42:39;;;;;;;16.50;11.03;;;6.70;99.90;;;;;;4908133;29;20218;-60
2023/04/08 01:45:10;;;;;;;16.53;10.10;;;6.80;99.90;;;;;;4916678;29;20239;-60
2023/04/08 01:47:40;;;;;;;15.53;11.10;;;6.90;99.90;;;;;;4916509;29;20698;-60
2023/04/08 01:50:10;;;;;;;16.03;10.50;;;6.90;99.90;;;;;;4916680;29;20598;-60
2023/04/08 01:52:40;;;;;;;16.03;10.73;;;6.90;99.90;;;;;;4916199;29;20225;-60
2023/04/08 01:55:09;;;;;;;15.07;11.13;;;6.80;99.90;;;;;;4916515;29;20261;-59
2023/04/08 01:57:38;;;;;;;18.80;11.90;;;6.80;99.90;;;;;;4916357;29;20229;-60
2023/04/08 02:00:10;;;;;;;15.77;10.77;;;6.80;99.90;;;;;;4931147;29;20237;-60
2023/04/08 02:02:47;;;;;;;16.27;9.30;;;6.80;99.90;;;;;;4901633;29;20296;-60
2023/04/08 02:05:16;;;;;;;15.43;11.10;;;7.00;99.90;;;;;;4917127;29;20688;-60
2023/04/08 02:07:45;;;;;;;14.33;11.07;;;7.00;99.90;;;;;;4927254;29;20235;-60
2023/04/08 02:10:13;;;;;;;19.50;11.77;;;6.90;99.90;;;;;;4930817;29;20260;-60
2023/04/08 02:12:42;;;;;;;16.40;10.37;;;7.00;99.90;;;;;;4907743;29;20228;-58
2023/04/08 02:15:13;;;;;;;15.70;10.80;;;6.90;99.90;;;;;;4897780;29;20221;-60
2023/04/08 02:17:45;;;;;;;14.23;10.23;;;6.90;99.90;;;;;;4915436;29;20300;-60
2023/04/08 02:20:19;;;;;;;16.30;10.07;;;6.90;99.90;;;;;;4916380;29;20216;-59
2023/04/08 02:22:50;;;;;;;15.50;10.63;;;6.90;99.90;;;;;;4914789;29;20732;-60
2023/04/08 02:25:23;;;;;;;14.13;9.97;;;6.90;99.90;;;;;;4918658;29;20587;-60
2023/04/08 02:27:52;;;;;;;13.90;9.67;;;6.90;99.90;;;;;;4920354;29;20220;-60
2023/04/08 02:30:25;;;;;;;16.63;10.57;;;6.80;99.90;;;;;;4919883;29;20688;-60
2023/04/08 02:32:54;;;;;;;17.73;10.97;;;6.80;99.90;;;;;;4911935;29;20232;-60
2023/04/08 02:35:23;;;;;;;14.57;9.23;;;6.80;99.90;;;;;;4921609;29;20227;-60
2023/04/08 02:37:51;;;;;;;15.60;10.50;;;6.80;99.90;;;;;;4930550;29;20232;-60
2023/04/08 02:40:27;;;;;;;16.10;10.90;;;6.80;99.90;;;;;;4932178;29;20328;-60
2023/04/08 02:42:56;;;;;;;15.43;10.83;;;6.80;99.90;;;;;;4923172;29;20732;-60
2023/04/08 02:45:30;;;;;;;16.07;10.50;;;6.80;99.90;;;;;;4900881;29;21069;-59
2023/04/08 02:47:59;;;;;;;17.20;11.13;;;6.80;99.90;;;;;;4917120;29;20701;-60
2023/04/08 02:50:28;;;;;;;14.30;9.93;;;6.80;99.90;;;;;;4919561;29;20684;-59
2023/04/08 02:52:56;;;;;;;16.10;11.40;;;6.80;99.90;;;;;;4918469;29;20600;-60
2023/04/08 02:55:25;;;;;;;15.33;10.53;;;6.80;99.90;;;;;;4918334;29;20252;-58
2023/04/08 02:57:53;;;;;;;19.03;11.37;;;6.90;99.90;;;;;;4919266;29;20239;-60
2023/04/08 03:00:21;;;;;;;14.37;10.57;;;6.90;99.90;;;;;;4919410;29;20233;-60
2023/04/08 03:02:50;;;;;;;15.23;11.33;;;6.90;99.90;;;;;;4914836;29;20232;-60
2023/04/08 03:05:19;;;;;;;17.70;11.73;;;6.80;99.90;;;;;;4915974;29;20319;-60
2023/04/08 03:07:47;;;;;;;17.13;11.30;;;6.80;99.90;;;;;;4930287;29;20719;-60
2023/04/08 03:10:15;;;;;;;18.17;12.40;;;6.80;99.90;;;;;;4933839;29;20596;-60
2023/04/08 03:12:43;;;;;;;19.57;11.97;;;6.80;99.90;;;;;;4910750;29;20237;-59
2023/04/08 03:15:11;;;;;;;18.47;12.80;;;6.70;99.90;;;;;;4900459;29;20237;-59
2023/04/08 03:17:39;;;;;;;15.77;9.80;;;6.70;99.90;;;;;;4900710;29;20252;-60
2023/04/08 03:20:10;;;;;;;18.80;12.27;;;6.80;99.90;;;;;;4900776;29;20234;-60
2023/04/08 03:22:38;;;;;;;18.43;13.33;;;6.80;99.90;;;;;;4900422;29;20601;-60
2023/04/08 03:25:07;;;;;;;16.10;12.30;;;6.70;99.90;;;;;;4900239;29;20241;-60
2023/04/08 03:27:35;;;;;;;21.03;13.87;;;6.70;99.90;;;;;;4900086;29;20230;-60
2023/04/08 03:30:03;;;;;;;18.10;12.73;;;6.70;99.90;;;;;;4900403;29;20240;-60
2023/04/08 03:32:32;;;;;;;15.77;11.63;;;6.70;99.90;;;;;;4900381;29;20241;-60
2023/04/08 03:35:00;;;;;;;20.10;13.40;;;6.80;99.90;;;;;;4913607;29;20759;-60
2023/04/08 03:37:30;;;;;;;16.40;13.00;;;6.80;99.90;;;;;;4928286;29;20251;-60
2023/04/08 03:39:58;;;;;;;17.73;12.17;;;6.80;99.90;;;;;;4902470;29;20570;-60
2023/04/08 03:42:26;;;;;;;18.10;13.73;;;6.70;99.90;;;;;;4910743;29;20233;-60
2023/04/08 03:44:54;;;;;;;19.10;13.27;;;6.80;99.90;;;;;;4933362;29;20589;-60
2023/04/08 03:47:22;;;;;;;22.40;14.00;;;6.80;99.90;;;;;;4912472;29;20234;-59
2023/04/08 03:49:52;;;;;;;21.43;13.47;;;6.80;99.90;;;;;;4899979;29;20233;-60
2023/04/08 03:52:20;;;;;;;22.63;14.17;;;6.80;99.90;;;;;;4900052;29;20689;-60
2023/04/08 03:54:49;;;;;;;22.50;14.70;;;6.80;99.90;;;;;;4899835;29;20708;-60
2023/04/08 03:57:17;;;;;;;22.63;15.20;;;6.70;99.90;;;;;;4899615;29;20243;-59
2023/04/08 03:59:45;;;;;;;20.17;14.77;;;6.70;99.90;;;;;;4899787;29;20567;-60
2023/04/08 04:02:13;;;;;;;24.67;15.60;;;6.70;99.90;;;;;;4899958;29;20248;-60
2023/04/08 04:04:42;;;;;;;26.60;15.97;;;6.80;99.90;;;;;;4907918;29;20345;-59
2023/04/08 04:07:10;;;;;;;21.33;15.27;;;6.70;99.90;;;;;;4929649;29;20714;-60
2023/04/08 04:09:38;;;;;;;20.63;14.20;;;6.70;99.90;;;;;;4922127;29;20241;-61
2023/04/08 04:12:07;;;;;;;21.70;14.57;;;6.80;99.90;;;;;;4908404;29;20237;-60
2023/04/08 04:14:35;;;;;;;16.77;12.80;;;6.70;99.90;;;;;;4914460;29;20232;-59
2023/04/08 04:17:03;;;;;;;17.03;13.23;;;6.70;99.90;;;;;;4918395;29;20237;-60
2023/04/08 04:19:32;;;;;;;16.30;11.93;;;6.60;99.90;;;;;;4918257;29;20229;-60
2023/04/08 04:22:00;;;;;;;15.27;11.47;;;6.70;99.90;;;;;;4918383;29;20239;-60
2023/04/08 04:24:28;;;;;;;19.37;12.93;;;6.70;99.90;;;;;;4917912;29;20244;-60
2023/04/08 04:26:56;;;;;;;18.10;12.63;;;6.70;99.90;;;;;;4918007;29;20233;-60
2023/04/08 04:29:25;;;;;;;17.77;12.50;;;6.70;99.90;;;;;;4925425;29;20236;-60
2023/04/08 04:31:53;;;;;;;19.30;13.27;;;6.70;99.90;;;;;;4920585;29;20228;-60
2023/04/08 04:34:21;;;;;;;17.03;12.60;;;6.70;99.90;;;;;;4906627;29;20229;-60
2023/04/08 04:36:49;;;;;;;16.67;12.60;;;6.70;99.90;;;;;;4925514;29;20580;-60
2023/04/08 04:39:17;;;;;;;17.07;12.60;;;6.70;99.90;;;;;;4936743;29;20219;-60
2023/04/08 04:41:47;;;;;;;20.00;13.77;;;6.60;99.90;;;;;;4936810;29;20811;-60
2023/04/08 04:44:15;;;;;;;17.37;12.60;;;6.60;99.90;;;;;;4930188;29;20231;-60
2023/04/08 04:46:45;;;;;;;18.73;13.17;;;6.60;99.90;;;;;;4917671;29;20592;-60
2023/04/08 04:49:13;;;;;;;19.10;13.67;;;6.60;99.90;;;;;;4917793;29;20229;-60
2023/04/08 04:51:41;;;;;;;19.80;14.87;;;6.60;99.90;;;;;;4917357;29;20239;-59
2023/04/08 04:54:09;;;;;;;20.23;13.83;;;6.60;99.90;;;;;;4917749;29;20229;-60
2023/04/08 04:56:37;;;;;;;19.20;13.93;;;6.60;99.90;;;;;;4916349;29;20236;-60
2023/04/08 04:59:05;;;;;;;18.90;14.27;;;6.60;99.90;;;;;;4911307;29;20244;-60
2023/04/08 05:01:33;;;;;;;17.30;13.40;;;6.70;99.90;;;;;;4912656;29;20240;-60
2023/04/08 05:04:03;;;;;;;16.83;13.50;;;6.60;99.90;;;;;;4909294;29;20604;-60
2023/04/08 05:06:31;;;;;;;19.33;14.23;;;6.60;99.90;;;;;;4922254;29;20700;-60
2023/04/08 05:08:59;;;;;;;19.80;14.07;;;6.60;99.90;;;;;;4935952;29;20239;-60
2023/04/08 05:11:27;;;;;;;18.80;13.13;;;6.60;99.90;;;;;;4936277;29;20239;-59
2023/04/08 05:13:55;;;;;;;20.53;14.43;;;6.60;99.90;;;;;;4936396;29;20230;-60
2023/04/08 05:16:23;;;;;;;17.10;13.17;;;6.60;99.90;;;;;;4936380;29;20254;-60
2023/04/08 05:18:51;;;;;;;15.30;13.13;;;6.70;99.90;;;;;;4911961;29;20229;-60
2023/04/08 05:21:21;;;;;;;17.63;13.47;;;6.60;99.90;;;;;;4898232;29;20229;-61
2023/04/08 05:23:51;;;;;;;19.10;14.90;;;6.70;99.90;;;;;;4897995;29;20221;-60
2023/04/08 05:26:20;;;;;;;16.87;13.20;;;6.60;99.90;;;;;;4903244;29;20712;-59
2023/04/08 05:28:48;;;;;;;23.20;14.00;;;6.60;99.90;;;;;;4933851;29;20687;-60
2023/04/08 05:31:17;;;;;;;19.30;14.00;;;6.60;99.90;;;;;;4935676;29;20248;-60
2023/04/08 05:33:45;;;;;;;21.23;15.10;;;6.60;99.90;;;;;;4909445;29;20237;-60
2023/04/08 05:36:14;;;;;;;19.07;14.57;;;6.50;99.90;;;;;;4926430;29;20238;-60
2023/04/08 05:38:43;;;;;;;23.73;15.50;;;6.60;99.90;;;;;;4918906;29;20237;-60
2023/04/08 05:41:11;;;;;;;23.13;15.43;;;6.50;99.90;;;;;;4916743;29;20232;-60
2023/04/08 05:43:40;;;;;;;24.13;15.87;;;6.50;99.90;;;;;;4916537;29;20429;-60
2023/04/08 05:46:08;;;;;;;22.67;16.67;;;6.50;99.90;;;;;;4916978;29;20244;-60
2023/04/08 05:48:37;;;;;;;24.17;16.23;;;6.50;99.90;;;;;;4923613;29;20687;-60
2023/04/08 05:51:05;;;;;;;20.90;14.60;;;6.50;99.90;;;;;;4909569;29;20235;-60
2023/04/08 05:53:33;;;;;;;25.77;16.47;;;6.60;99.90;;;;;;4899574;29;20229;-59
2023/04/08 05:56:02;;;;;;;22.23;16.17;;;6.60;99.90;;;;;;4897926;29;20685;-60
2023/04/08 05:58:30;;;;;;;22.43;15.80;;;6.60;99.90;;;;;;4897798;29;20571;-60
2023/04/08 06:00:58;;;;;;;21.67;16.30;;;6.50;99.90;;;;;;4922088;29;20233;-61
2023/04/08 06:03:26;;;;;;;23.30;16.57;;;6.50;99.90;;;;;;4902041;29;20249;-59
2023/04/08 06:05:55;;;;;;;24.73;16.23;;;6.50;99.90;;;;;;4905337;29;20268;-60
2023/04/08 06:08:23;;;;;;;23.03;15.03;;;6.60;99.90;;;;;;4917462;29;20589;-60
2023/04/08 06:10:51;;;;;;;27.63;17.90;;;6.70;99.90;;;;;;4907136;29;20316;-60
2023/04/08 06:13:21;;;;;;;24.47;16.33;;;6.60;99.90;;;;;;4903591;29;20235;-59
2023/04/08 06:15:49;;;;;;;23.87;17.23;;;6.60;99.90;;;;;;4909162;29;20232;-60
2023/04/08 06:18:17;;;;;;;26.93;17.97;;;6.50;99.90;;;;;;4906474;29;20229;-60
2023/04/08 06:20:45;;;;;;;27.37;18.37;;;6.60;99.90;;;;;;4908873;29;20236;-60
2023/04/08 06:23:13;;;;;;;30.10;19.10;;;6.50;99.90;;;;;;4906170;29;20260;-60
2023/04/08 06:25:41;;;;;;;28.13;18.23;;;6.50;99.90;;;;;;4907469;29;20251;-60
2023/04/08 06:28:09;;;;;;;29.87;16.97;;;6.50;99.90;;;;;;4906581;29;20241;-60
2023/04/08 06:30:39;;;;;;;27.13;17.90;;;6.50;99.90;;;;;;4907475;29;20709;-60
2023/04/08 06:33:07;;;;;;;25.90;16.17;;;6.50;99.90;;;;;;4911003;29;20704;-60
2023/04/08 06:35:36;;;;;;;29.47;17.87;;;6.50;99.90;;;;;;4907954;29;20237;-59
2023/04/08 06:38:04;;;;;;;29.93;17.90;;;6.50;99.90;;;;;;4909714;29;20225;-60
2023/04/08 06:40:32;;;;;;;28.70;17.43;;;6.50;99.90;;;;;;4907506;29;20280;-60
2023/04/08 06:43:00;;;;;;;30.93;18.50;;;6.60;99.90;;;;;;4905363;29;20244;-60
2023/04/08 06:45:34;;;;;;;29.60;18.20;;;6.50;99.90;;;;;;4906664;29;20351;-60
2023/04/08 06:48:05;;;;;;;27.80;17.20;;;6.50;99.90;;;;;;4906913;29;20239;-60
2023/04/08 06:50:33;;;;;;;30.40;17.37;;;6.60;99.90;;;;;;4902841;29;20261;-59
2023/04/08 06:53:01;;;;;;;29.67;17.43;;;6.70;99.90;;;;;;4906975;29;20718;-60
2023/04/08 06:55:30;;;;;;;29.53;17.80;;;6.70;99.90;;;;;;4906594;29;20234;-60
2023/04/08 06:57:58;;;;;;;33.30;19.43;;;6.70;99.90;;;;;;4905749;29;20236;-60
2023/04/08 07:00:26;;;;;;;34.33;19.47;;;6.60;99.90;;;;;;4906926;29;20228;-59
2023/04/08 07:02:54;;;;;;;33.63;19.47;;;6.50;99.90;;;;;;4906077;29;20236;-60
2023/04/08 07:05:23;;;;;;;29.57;19.03;;;6.50;99.90;;;;;;4909368;29;20236;-60
2023/04/08 07:07:51;;;;;;;37.87;20.63;;;6.60;99.90;;;;;;4913449;29;20593;-59
2023/04/08 07:10:20;;;;;;;31.33;18.93;;;6.50;99.90;;;;;;4905897;29;20236;-60
2023/04/08 07:12:48;;;;;;;32.23;20.30;;;6.60;99.90;;;;;;4909316;29;20677;-60
2023/04/08 07:15:16;;;;;;;34.43;19.80;;;6.60;99.90;;;;;;4915473;29;20233;-60
2023/04/08 07:17:45;;;;;;;36.57;19.57;;;6.60;99.90;;;;;;4908700;29;20766;-60
2023/04/08 07:20:13;;;;;;;34.67;20.40;;;6.60;99.90;;;;;;4906913;29;20271;-60
2023/04/08 07:22:46;;;;;;;34.60;21.00;;;6.70;99.90;;;;;;4900135;29;20602;-60
2023/04/08 07:25:14;;;;;;;38.53;21.77;;;6.60;99.90;;;;;;4912497;29;20584;-60
2023/04/08 07:27:42;;;;;;;32.37;21.00;;;6.60;99.90;;;;;;4909658;29;20319;-60
2023/04/08 07:30:10;;;;;;;35.67;21.33;;;6.70;99.90;;;;;;4903253;29;20221;-60
2023/04/08 07:32:38;;;;;;;32.30;19.77;;;6.70;99.90;;;;;;4907419;29;20251;-60
2023/04/08 07:35:07;;;;;;;29.73;20.27;;;6.80;99.90;;;;;;4908673;29;20232;-61
2023/04/08 07:37:35;;;;;;;34.40;20.10;;;6.80;99.90;;;;;;4909917;29;20819;-60
2023/04/08 07:40:05;;;;;;;34.47;20.77;;;6.80;99.90;;;;;;4902391;29;20249;-61
2023/04/08 07:42:34;;;;;;;33.57;20.33;;;6.80;99.90;;;;;;4903156;29;20229;-59
2023/04/08 07:45:02;;;;;;;33.77;21.47;;;6.70;99.90;;;;;;4905046;29;20236;-59
2023/04/08 07:47:30;;;;;;;34.93;20.20;;;6.80;99.90;;;;;;4898342;29;20228;-60
2023/04/08 07:49:58;;;;;;;33.20;20.40;;;6.80;99.90;;;;;;4902449;29;20826;-60
2023/04/08 07:52:27;;;;;;;31.60;16.63;;;6.70;99.90;;;;;;4901777;29;20577;-60
2023/04/08 07:54:55;;;;;;;28.63;17.80;;;6.80;99.90;;;;;;4901793;29;20706;-61
2023/04/08 07:57:25;;;;;;;33.20;17.97;;;6.90;99.90;;;;;;4898482;29;20240;-60
2023/04/08 07:59:53;;;;;;;26.23;16.30;;;7.00;99.90;;;;;;4902004;29;20252;-59
2023/04/08 08:02:21;;;;;;;25.50;16.27;;;7.10;99.90;;;;;;4899578;29;20237;-59
2023/04/08 08:04:50;;;;;;;23.37;15.10;;;7.10;99.90;;;;;;4898843;29;20256;-60
2023/04/08 08:07:18;;;;;;;26.33;15.37;;;7.10;99.90;;;;;;4900066;29;20371;-60
2023/04/08 08:09:46;;;;;;;22.73;14.83;;;7.10;99.90;;;;;;4900580;29;21356;-60
2023/04/08 08:12:14;;;;;;;21.73;14.90;;;7.00;99.90;;;;;;4899474;29;20747;-60
2023/04/08 08:14:44;;;;;;;20.83;14.33;;;7.10;99.90;;;;;;4899845;29;20240;-61
2023/04/08 08:17:12;;;;;;;21.33;14.97;;;7.00;99.90;;;;;;4896992;29;20713;-60
2023/04/08 08:19:40;;;;;;;25.30;15.47;;;7.00;99.90;;;;;;4901936;29;20236;-60
2023/04/08 08:22:08;;;;;;;26.87;16.83;;;7.10;99.90;;;;;;4900362;29;20237;-61
2023/04/08 08:24:36;;;;;;;24.77;17.00;;;7.20;99.90;;;;;;4900135;29;20229;-60
2023/04/08 08:27:05;;;;;;;25.83;18.17;;;7.30;99.90;;;;;;4899343;29;20240;-60
2023/04/08 08:29:33;;;;;;;24.87;16.33;;;7.20;99.90;;;;;;4899699;29;20392;-59
2023/04/08 08:32:03;;;;;;;28.13;17.77;;;7.30;99.90;;;;;;4899209;29;20739;-60
2023/04/08 08:34:31;;;;;;;31.10;19.37;;;7.40;99.90;;;;;;4901935;29;20295;-59
2023/04/08 08:36:59;;;;;;;28.30;18.37;;;7.50;99.90;;;;;;4897066;29;20288;-60
2023/04/08 08:39:27;;;;;;;31.57;20.50;;;7.50;99.90;;;;;;4900977;29;20233;-60
2023/04/08 08:41:55;;;;;;;31.97;20.87;;;7.50;99.90;;;;;;4901371;29;20236;-59
2023/04/08 08:44:25;;;;;;;34.83;21.70;;;7.40;99.90;;;;;;4900039;29;20228;-59
2023/04/08 08:46:54;;;;;;;37.47;22.07;;;7.40;99.90;;;;;;4897097;29;20615;-59
2023/04/08 08:49:23;;;;;;;32.80;21.50;;;7.40;99.90;;;;;;4897755;29;20237;-59
2023/04/08 08:51:54;;;;;;;34.50;22.00;;;7.40;99.90;;;;;;4898032;29;20320;-58
2023/04/08 08:54:23;;;;;;;31.83;20.40;;;7.40;99.90;;;;;;4899654;29;20237;-59
2023/04/08 08:56:51;;;;;;;36.00;21.63;;;7.40;99.90;;;;;;4898649;29;20604;-59
2023/04/08 08:59:20;;;;;;;33.33;21.23;;;7.40;99.90;;;;;;4901545;29;20240;-58
2023/04/08 09:01:48;;;;;;;35.37;22.20;;;7.40;99.90;;;;;;4899244;29;20246;-58
2023/04/08 09:04:18;;;;;;;33.00;20.60;;;7.40;99.90;;;;;;4900400;29;20759;-59
2023/04/08 09:07:09;;;;;;;34.03;22.23;;;7.40;99.90;;;;;;4896559;29;20315;-59
2023/04/08 09:09:48;;;;;;;30.13;19.63;;;7.50;99.90;;;;;;4900767;29;20241;-58
2023/04/08 09:12:17;;;;;;;28.27;19.37;;;7.50;99.90;;;;;;4901263;29;20237;-59
2023/04/08 09:14:45;;;;;;;27.77;18.67;;;7.50;99.90;;;;;;4902837;29;20768;-58
2023/04/08 09:17:14;;;;;;;25.33;18.10;;;7.60;99.90;;;;;;4898452;29;20742;-59
2023/04/08 09:20:08;;;;;;;26.03;17.53;;;7.50;99.90;;;;;;4900286;29;20237;-58
2023/04/08 09:22:56;;;;;;;25.90;17.33;;;7.50;99.90;;;;;;4895326;29;20332;-58
2023/04/08 09:25:25;;;;;;;27.97;18.00;;;7.50;99.90;;;;;;4899918;29;20243;-57
2023/04/08 09:27:53;;;;;;;26.80;18.33;;;7.40;99.90;;;;;;4897622;29;20237;-59
2023/04/08 09:30:23;;;;;;;29.23;19.17;;;7.60;99.90;;;;;;4896966;29;20717;-59
2023/04/08 09:32:54;;;;;;;30.37;19.90;;;7.50;99.90;;;;;;4896768;29;20232;-59
2023/04/08 09:35:23;;;;;;;31.10;19.70;;;7.50;99.90;;;;;;4897832;29;20641;-58
2023/04/08 09:37:52;;;;;;;28.63;21.07;;;7.50;99.90;;;;;;4894662;29;20232;-58
2023/04/08 09:40:21;;;;;;;31.33;20.13;;;7.50;99.90;;;;;;4900394;29;20237;-58
2023/04/08 09:42:55;;;;;;;27.23;20.43;;;7.50;99.90;;;;;;4897981;29;20732;-59
2023/04/08 09:45:26;;;;;;;29.17;20.03;;;7.60;99.90;;;;;;4900361;29;20758;-59
2023/04/08 09:47:57;;;;;;;31.30;21.57;;;7.70;99.90;;;;;;4897943;29;20244;-58
2023/04/08 09:50:32;;;;;;;28.43;20.47;;;7.70;99.90;;;;;;4899480;29;20878;-59
2023/04/08 09:53:10;;;;;;;29.20;20.30;;;7.80;99.90;;;;;;4896291;29;20236;-59
2023/04/08 09:55:39;;;;;;;29.50;19.67;;;7.90;99.90;;;;;;4893352;29;20233;-58
2023/04/08 09:58:15;;;;;;;28.57;19.50;;;7.90;99.90;;;;;;4893078;29;20281;-58
2023/04/08 10:00:49;;;;;;;27.27;19.00;;;8.00;99.90;;;;;;4891815;29;20236;-58
2023/04/08 10:03:27;;;;;;;29.37;20.17;;;8.10;99.90;;;;;;4892284;29;20252;-57
2023/04/08 10:05:56;;;;;;;26.20;18.13;;;8.10;99.90;;;;;;4891431;29;20242;-58
2023/04/08 10:08:26;;;;;;;28.87;19.20;;;8.20;99.90;;;;;;4889394;29;20237;-58
2023/04/08 10:10:56;;;;;;;26.10;18.00;;;8.30;99.90;;;;;;4893859;29;20236;-58
2023/04/08 10:13:27;;;;;;;40.93;19.77;;;8.30;99.90;;;;;;4894003;29;20245;-58
2023/04/08 10:16:18;;;;;;;30.93;18.77;;;8.40;99.90;;;;;;4891925;29;20233;-58
2023/04/08 10:18:48;;;;;;;26.57;17.97;;;8.40;99.90;;;;;;4891449;29;20733;-58
2023/04/08 10:21:36;;;;;;;27.90;18.87;;;8.50;99.90;;;;;;4892922;29;20247;-58
2023/04/08 10:24:10;;;;;;;24.77;17.53;;;8.40;99.90;;;;;;4892437;29;20233;-58
2023/04/08 10:26:41;;;;;;;26.23;17.67;;;8.40;99.90;;;;;;4892038;29;20717;-58
2023/04/08 10:29:34;;;;;;;24.70;16.83;;;8.30;99.90;;;;;;4893616;29;20255;-58
2023/04/08 10:32:02;;;;;;;25.03;16.73;;;8.30;99.90;;;;;;4890632;29;20728;-59
2023/04/08 10:34:30;;;;;;;21.60;16.27;;;8.40;99.90;;;;;;4892563;29;20224;-58
2023/04/08 10:37:00;;;;;;;24.23;16.67;;;8.50;99.90;;;;;;4891660;29;20258;-59
2023/04/08 10:39:31;;;;;;;23.13;16.07;;;8.60;99.90;;;;;;4893071;29;20237;-59
2023/04/08 10:42:02;;;;;;;21.70;16.93;;;8.60;99.90;;;;;;4893023;29;20330;-58
2023/04/08 10:44:31;;;;;;;23.43;17.07;;;8.70;99.90;;;;;;4892933;29;20289;-59
2023/04/08 10:46:59;;;;;;;26.17;17.73;;;8.70;99.90;;;;;;4895400;29;20228;-59
2023/04/08 10:49:33;;;;;;;28.33;18.47;;;8.80;99.90;;;;;;4894871;29;20701;-59
2023/04/08 10:52:07;;;;;;;26.93;18.20;;;8.80;99.90;;;;;;4895835;29;20767;-59
2023/04/08 10:54:37;;;;;;;21.17;16.07;;;8.80;99.90;;;;;;4895717;29;20268;-58
2023/04/08 10:57:06;;;;;;;28.60;16.93;;;8.90;99.90;;;;;;4893766;29;20247;-59
2023/04/08 10:59:35;;;;;;;24.93;18.00;;;8.80;99.90;;;;;;4895985;29;20233;-59
2023/04/08 11:02:03;;;;;;;21.83;16.57;;;8.90;99.90;;;;;;4895377;29;20662;-59
2023/04/08 11:04:32;;;;;;;26.17;18.00;;;9.00;99.90;;;;;;4892902;29;20245;-58
2023/04/08 11:07:00;;;;;;;27.60;16.83;;;9.10;99.90;;;;;;4891983;29;20232;-58
2023/04/08 11:09:28;;;;;;;24.30;16.93;;;9.10;99.90;;;;;;4894000;29;20720;-59
2023/04/08 11:11:57;;;;;;;30.80;19.10;;;9.00;99.90;;;;;;4895654;29;20240;-59
2023/04/08 11:14:26;;;;;;;25.50;18.33;;;9.00;99.90;;;;;;4895123;29;20257;-57
2023/04/08 11:16:54;;;;;;;27.50;18.80;;;9.10;99.90;;;;;;4894994;29;20963;-59
2023/04/08 11:19:22;;;;;;;23.60;17.47;;;9.00;99.90;;;;;;4894862;29;20241;-59
2023/04/08 11:21:51;;;;;;;25.60;17.53;;;9.00;99.90;;;;;;4895709;29;20253;-58
2023/04/08 11:24:21;;;;;;;25.23;19.07;;;9.10;99.90;;;;;;4896434;29;20244;-60
2023/04/08 11:26:49;;;;;;;23.93;17.80;;;9.20;99.90;;;;;;4894563;29;20652;-59
2023/04/08 11:29:20;;;;;;;25.13;18.50;;;9.10;99.90;;;;;;4894022;29;20276;-59
2023/04/08 11:31:48;;;;;;;25.00;18.20;;;9.10;99.90;;;;;;4894034;29;20281;-59
2023/04/08 11:34:23;;;;;;;27.57;18.90;;;9.10;99.90;;;;;;4896479;29;20708;-58
2023/04/08 11:36:52;;;;;;;24.57;17.60;;;9.10;99.90;;;;;;4894427;29;20368;-58
2023/04/08 11:39:23;;;;;;;24.23;18.00;;;9.30;99.90;;;;;;4897039;29;20597;-60
2023/04/08 11:41:52;;;;;;;24.67;17.20;;;9.30;99.90;;;;;;4894553;29;20248;-59
2023/04/08 11:44:30;;;;;;;22.23;17.73;;;9.30;99.90;;;;;;4895773;29;20324;-59
2023/04/08 11:47:00;;;;;;;29.20;18.27;;;9.30;99.90;;;;;;4894570;29;20702;-59
2023/04/08 11:49:43;;;;;;;22.73;17.53;;;9.40;99.90;;;;;;4894079;29;20813;-58
2023/04/08 11:52:11;;;;;;;23.53;17.77;;;9.40;99.90;;;;;;4895897;29;20235;-59
2023/04/08 11:54:42;;;;;;;23.23;17.73;;;9.50;99.90;;;;;;4894676;29;20715;-59
2023/04/08 11:57:10;;;;;;;22.93;17.93;;;9.50;99.90;;;;;;4893769;29;20878;-59
2023/04/08 11:59:40;;;;;;;28.33;19.60;;;9.50;99.90;;;;;;4893933;29;20706;-59
2023/04/08 12:02:08;;;;;;;27.63;20.43;;;9.30;99.90;;;;;;4894353;29;20243;-60
2023/04/08 12:04:37;;;;;;;29.03;20.40;;;9.30;99.90;;;;;;4894026;29;21417;-59
2023/04/08 12:07:05;;;;;;;30.33;20.67;;;9.50;99.90;;;;;;4893051;29;20244;-59
2023/04/08 12:09:33;;;;;;;33.13;21.33;;;9.50;99.90;;;;;;4894197;29;20758;-58
2023/04/08 12:12:02;;;;;;;30.90;22.60;;;9.50;99.90;;;;;;4894815;29;20293;-60
2023/04/08 12:14:31;;;;;;;30.53;21.13;;;9.40;99.90;;;;;;4896240;29;20713;-58
2023/04/08 12:17:00;;;;;;;30.50;20.67;;;9.40;99.90;;;;;;4893397;29;20641;-60
2023/04/08 12:19:28;;;;;;;28.20;19.97;;;9.60;99.90;;;;;;4892791;29;20250;-58
2023/04/08 12:21:58;;;;;;;26.63;20.27;;;9.60;99.90;;;;;;4892838;29;20274;-59
2023/04/08 12:24:26;;;;;;;26.37;20.17;;;9.60;99.90;;;;;;4893592;29;20238;-58
2023/04/08 12:26:55;;;;;;;24.67;19.00;;;9.70;99.90;;;;;;4905567;29;20228;-60
2023/04/08 12:29:23;;;;;;;22.20;17.03;;;9.70;99.90;;;;;;4910444;29;20237;-59
2023/04/08 12:31:52;;;;;;;26.27;19.10;;;9.80;99.90;;;;;;4910150;29;20380;-59
2023/04/08 12:34:22;;;;;;;23.43;17.33;;;9.60;99.90;;;;;;4909694;29;20286;-59
2023/04/08 12:36:50;;;;;;;21.20;16.87;;;9.70;99.90;;;;;;4925449;29;20251;-59
2023/04/08 12:39:18;;;;;;;23.27;18.60;;;9.50;99.90;;;;;;4921621;29;20230;-59
2023/04/08 12:41:46;;;;;;;21.27;17.57;;;9.50;99.90;;;;;;4906443;29;20695;-59
2023/04/08 12:44:14;;;;;;;22.50;16.97;;;9.50;99.90;;;;;;4907718;29;20720;-59
2023/04/08 12:46:42;;;;;;;23.13;16.97;;;9.60;99.90;;;;;;4917574;29;20257;-59
2023/04/08 12:49:10;;;;;;;21.90;16.87;;;9.80;99.90;;;;;;4917703;29;20235;-59
2023/04/08 12:51:40;;;;;;;22.80;17.50;;;9.80;99.90;;;;;;4917746;29;20686;-59
2023/04/08 12:54:08;;;;;;;21.73;17.40;;;9.90;99.90;;;;;;4917480;29;20262;-60